Zahedan International Airport
OIZH : now visible

Airfield :











YOU CAN JOIN US ON...

 
LOGIN :

Register | Disclaimer

   EN    FR    IT 

 









Legend :    VFR   Marginal VFR   IFR   Intensive IFR   Very Intensive IFR
Visi :
Ceiling :
>= 8 km
>= 3000ft
5 to 8 km
1000 to 3000 ft
1500m to 5 km
500 to 1000 ft
800 to 1500m
200 to 500 ft
< 800m
< 200 ft
Symbols :   Thunderstorms  Fog  Heavy snow  Heavy precipitations  Wind > 20 kt






- Airport Elevation : 4564 ft
- IATA code : ZAH


OIZH - Zahedan International

CURRENT METAR :
  • 100900Z 04006KT 5000 DU NSC 27/06 Q1020 A3012

EXPIRED METARs :
  • 100730Z 12008KT 5000 DU NSC 26/06 Q1020 A3015

TAF TAF OIZH
Valid from the 10 at 06:00 until the 11 at 12:00 UTC


100530Z 1006/1112 14008KT 7000 NSC
TEMPO 1006/1009 4000 DU
BECMG 1008/1010 FEW035CB SCT040 BKN100
TEMPO 1010/1015 16014G24KT 4000 SA TSRA SCT030CB SCT035 OVC090
BECMG 1016/1018 FEW035 SCT100
BECMG 1105/1107 20016KT FEW035CB SCT040 BKN100
TEMPO 1107/1112 26016G26KT 4000 SA



MET'MAP, your aeronautical weather chart ! - Copyright ORBIFLY December 2007 - Disclaimer

ORBIFLY MET'MAP TEAM :

Programming & Development : Alexandra Zaïnal
Concept & original design : Baudouin d'Aumeries
Assistance for programming : Marc-Olivier Méhu
Technical & hardware support : Manuel Goepfert

Contact : metmap@orbifly.com




SOURCES & CREDITS :

   NOAA       Earth
Advisory